sensor_id;sensor_type;location;lat;lon;timestamp;P1;durP1;ratioP1;P2;durP2;ratioP2
12635;SDS011;6383;50.830;7.210;2023-02-13T00:00:47;13.98;;;11.57;;
12635;SDS011;6383;50.830;7.210;2023-02-13T00:03:16;15.52;;;11.88;;
12635;SDS011;6383;50.830;7.210;2023-02-13T00:05:45;18.25;;;11.52;;
12635;SDS011;6383;50.830;7.210;2023-02-13T00:08:13;19.50;;;13.27;;
12635;SDS011;6383;50.830;7.210;2023-02-13T00:10:40;16.92;;;13.05;;
12635;SDS011;6383;50.830;7.210;2023-02-13T00:13:09;15.52;;;11.77;;
12635;SDS011;6383;50.830;7.210;2023-02-13T00:15:37;14.32;;;10.90;;
12635;SDS011;6383;50.830;7.210;2023-02-13T00:18:06;14.85;;;11.63;;
12635;SDS011;6383;50.830;7.210;2023-02-13T00:20:35;15.27;;;11.93;;
12635;SDS011;6383;50.830;7.210;2023-02-13T00:23:03;18.55;;;14.32;;
12635;SDS011;6383;50.830;7.210;2023-02-13T00:25:32;19.52;;;13.90;;
12635;SDS011;6383;50.830;7.210;2023-02-13T00:28:01;16.20;;;12.18;;
12635;SDS011;6383;50.830;7.210;2023-02-13T00:30:28;13.38;;;11.10;;
12635;SDS011;6383;50.830;7.210;2023-02-13T00:32:56;15.00;;;11.80;;
12635;SDS011;6383;50.830;7.210;2023-02-13T00:35:25;13.38;;;11.80;;
12635;SDS011;6383;50.830;7.210;2023-02-13T00:37:54;14.93;;;11.00;;
12635;SDS011;6383;50.830;7.210;2023-02-13T00:40:22;16.17;;;12.88;;
12635;SDS011;6383;50.830;7.210;2023-02-13T00:42:50;12.50;;;11.15;;
12635;SDS011;6383;50.830;7.210;2023-02-13T00:45:19;13.90;;;11.13;;
12635;SDS011;6383;50.830;7.210;2023-02-13T00:47:46;11.80;;;10.60;;
12635;SDS011;6383;50.830;7.210;2023-02-13T00:50:14;13.68;;;11.32;;
12635;SDS011;6383;50.830;7.210;2023-02-13T00:52:43;11.90;;;10.70;;
12635;SDS011;6383;50.830;7.210;2023-02-13T00:55:12;12.38;;;10.38;;
12635;SDS011;6383;50.830;7.210;2023-02-13T00:57:41;13.05;;;10.75;;
12635;SDS011;6383;50.830;7.210;2023-02-13T01:00:10;14.25;;;10.55;;
12635;SDS011;6383;50.830;7.210;2023-02-13T01:02:40;12.00;;;10.52;;
12635;SDS011;6383;50.830;7.210;2023-02-13T01:05:09;13.63;;;11.45;;
12635;SDS011;6383;50.830;7.210;2023-02-13T01:07:36;24.88;;;17.05;;
12635;SDS011;6383;50.830;7.210;2023-02-13T01:10:07;15.00;;;13.02;;
12635;SDS011;6383;50.830;7.210;2023-02-13T01:12:41;12.90;;;10.98;;
12635;SDS011;6383;50.830;7.210;2023-02-13T01:15:09;17.58;;;13.40;;
12635;SDS011;6383;50.830;7.210;2023-02-13T01:17:38;17.35;;;12.90;;
12635;SDS011;6383;50.830;7.210;2023-02-13T01:20:06;13.90;;;11.70;;
12635;SDS011;6383;50.830;7.210;2023-02-13T01:22:34;16.23;;;13.27;;
12635;SDS011;6383;50.830;7.210;2023-02-13T01:25:04;12.60;;;9.95;;
12635;SDS011;6383;50.830;7.210;2023-02-13T01:27:34;12.32;;;11.02;;
12635;SDS011;6383;50.830;7.210;2023-02-13T01:30:04;11.52;;;10.27;;
12635;SDS011;6383;50.830;7.210;2023-02-13T01:32:38;13.85;;;11.93;;
12635;SDS011;6383;50.830;7.210;2023-02-13T01:35:06;14.70;;;12.25;;
12635;SDS011;6383;50.830;7.210;2023-02-13T01:37:34;12.68;;;10.77;;
12635;SDS011;6383;50.830;7.210;2023-02-13T01:40:02;17.20;;;13.73;;
12635;SDS011;6383;50.830;7.210;2023-02-13T01:42:32;14.35;;;12.48;;
12635;SDS011;6383;50.830;7.210;2023-02-13T01:45:03;15.38;;;12.30;;
12635;SDS011;6383;50.830;7.210;2023-02-13T01:47:37;11.70;;;10.40;;
12635;SDS011;6383;50.830;7.210;2023-02-13T01:50:10;14.25;;;11.65;;
12635;SDS011;6383;50.830;7.210;2023-02-13T01:52:45;14.70;;;11.45;;
12635;SDS011;6383;50.830;7.210;2023-02-13T01:55:16;15.98;;;12.77;;
12635;SDS011;6383;50.830;7.210;2023-02-13T01:57:48;14.25;;;11.02;;
12635;SDS011;6383;50.830;7.210;2023-02-13T02:00:21;14.45;;;12.40;;
12635;SDS011;6383;50.830;7.210;2023-02-13T02:02:50;13.52;;;11.15;;
12635;SDS011;6383;50.830;7.210;2023-02-13T02:05:20;13.23;;;10.75;;
12635;SDS011;6383;50.830;7.210;2023-02-13T02:07:51;15.23;;;12.25;;
12635;SDS011;6383;50.830;7.210;2023-02-13T02:10:22;12.73;;;10.70;;
12635;SDS011;6383;50.830;7.210;2023-02-13T02:12:53;12.25;;;10.93;;
12635;SDS011;6383;50.830;7.210;2023-02-13T02:15:29;13.18;;;9.88;;
12635;SDS011;6383;50.830;7.210;2023-02-13T02:17:58;11.52;;;10.38;;
12635;SDS011;6383;50.830;7.210;2023-02-13T02:20:29;13.93;;;10.25;;
12635;SDS011;6383;50.830;7.210;2023-02-13T02:26:24;11.80;;;9.80;;
12635;SDS011;6383;50.830;7.210;2023-02-13T02:29:20;12.48;;;10.75;;
12635;SDS011;6383;50.830;7.210;2023-02-13T02:32:09;11.93;;;10.43;;
12635;SDS011;6383;50.830;7.210;2023-02-13T02:34:51;12.95;;;10.85;;
12635;SDS011;6383;50.830;7.210;2023-02-13T02:40:23;11.63;;;10.43;;
12635;SDS011;6383;50.830;7.210;2023-02-13T02:43:01;12.70;;;11.30;;
12635;SDS011;6383;50.830;7.210;2023-02-13T02:45:42;11.30;;;10.18;;
12635;SDS011;6383;50.830;7.210;2023-02-13T02:48:22;13.82;;;11.00;;
12635;SDS011;6383;50.830;7.210;2023-02-13T02:53:47;11.85;;;10.48;;
12635;SDS011;6383;50.830;7.210;2023-02-13T02:56:24;11.02;;;9.85;;
12635;SDS011;6383;50.830;7.210;2023-02-13T02:58:59;13.20;;;10.65;;
12635;SDS011;6383;50.830;7.210;2023-02-13T03:01:48;11.27;;;9.35;;
12635;SDS011;6383;50.830;7.210;2023-02-13T03:04:39;11.77;;;9.82;;
12635;SDS011;6383;50.830;7.210;2023-02-13T03:07:28;12.43;;;10.68;;
12635;SDS011;6383;50.830;7.210;2023-02-13T03:09:59;13.18;;;10.88;;
12635;SDS011;6383;50.830;7.210;2023-02-13T03:12:53;11.50;;;9.73;;
12635;SDS011;6383;50.830;7.210;2023-02-13T03:15:49;11.98;;;10.55;;
12635;SDS011;6383;50.830;7.210;2023-02-13T03:18:37;12.20;;;10.85;;
12635;SDS011;6383;50.830;7.210;2023-02-13T03:21:29;12.55;;;10.70;;
12635;SDS011;6383;50.830;7.210;2023-02-13T03:24:27;13.07;;;10.25;;
12635;SDS011;6383;50.830;7.210;2023-02-13T03:27:05;13.18;;;11.18;;
12635;SDS011;6383;50.830;7.210;2023-02-13T03:29:38;11.85;;;10.65;;
12635;SDS011;6383;50.830;7.210;2023-02-13T03:32:31;11.55;;;10.35;;
12635;SDS011;6383;50.830;7.210;2023-02-13T03:35:21;10.77;;;9.70;;
12635;SDS011;6383;50.830;7.210;2023-02-13T03:38:12;12.82;;;10.65;;
12635;SDS011;6383;50.830;7.210;2023-02-13T03:40:48;12.65;;;10.68;;
12635;SDS011;6383;50.830;7.210;2023-02-13T03:43:39;12.27;;;11.00;;
12635;SDS011;6383;50.830;7.210;2023-02-13T03:46:13;12.02;;;10.73;;
12635;SDS011;6383;50.830;7.210;2023-02-13T03:48:42;13.13;;;11.35;;
12635;SDS011;6383;50.830;7.210;2023-02-13T03:51:31;13.15;;;10.73;;
12635;SDS011;6383;50.830;7.210;2023-02-13T03:54:10;11.68;;;10.48;;
12635;SDS011;6383;50.830;7.210;2023-02-13T03:56:43;12.50;;;10.63;;
12635;SDS011;6383;50.830;7.210;2023-02-13T03:59:31;12.00;;;10.65;;
12635;SDS011;6383;50.830;7.210;2023-02-13T04:02:04;13.43;;;10.55;;
12635;SDS011;6383;50.830;7.210;2023-02-13T04:04:39;14.70;;;11.30;;
12635;SDS011;6383;50.830;7.210;2023-02-13T04:07:13;12.63;;;11.25;;
12635;SDS011;6383;50.830;7.210;2023-02-13T04:09:57;11.75;;;10.52;;
12635;SDS011;6383;50.830;7.210;2023-02-13T04:12:30;12.02;;;10.68;;
12635;SDS011;6383;50.830;7.210;2023-02-13T04:15:06;13.55;;;11.57;;
12635;SDS011;6383;50.830;7.210;2023-02-13T04:17:39;13.15;;;11.25;;
12635;SDS011;6383;50.830;7.210;2023-02-13T04:20:11;12.90;;;11.48;;
12635;SDS011;6383;50.830;7.210;2023-02-13T04:22:41;11.02;;;9.90;;
12635;SDS011;6383;50.830;7.210;2023-02-13T04:25:13;11.88;;;10.68;;
12635;SDS011;6383;50.830;7.210;2023-02-13T04:27:43;12.43;;;10.93;;
12635;SDS011;6383;50.830;7.210;2023-02-13T04:30:13;12.10;;;10.73;;
12635;SDS011;6383;50.830;7.210;2023-02-13T04:32:40;12.95;;;11.45;;
12635;SDS011;6383;50.830;7.210;2023-02-13T04:35:08;11.90;;;10.68;;
12635;SDS011;6383;50.830;7.210;2023-02-13T04:37:38;12.02;;;10.80;;
12635;SDS011;6383;50.830;7.210;2023-02-13T04:40:07;12.57;;;11.20;;
12635;SDS011;6383;50.830;7.210;2023-02-13T04:42:38;13.77;;;11.32;;
12635;SDS011;6383;50.830;7.210;2023-02-13T04:45:07;12.65;;;11.30;;
12635;SDS011;6383;50.830;7.210;2023-02-13T04:47:35;12.77;;;11.48;;
12635;SDS011;6383;50.830;7.210;2023-02-13T04:50:03;12.27;;;10.98;;
12635;SDS011;6383;50.830;7.210;2023-02-13T04:52:32;12.60;;;11.00;;
12635;SDS011;6383;50.830;7.210;2023-02-13T04:54:59;14.82;;;10.82;;
12635;SDS011;6383;50.830;7.210;2023-02-13T04:57:29;13.15;;;11.43;;
12635;SDS011;6383;50.830;7.210;2023-02-13T04:59:59;12.52;;;10.95;;
12635;SDS011;6383;50.830;7.210;2023-02-13T05:02:29;12.73;;;11.48;;
12635;SDS011;6383;50.830;7.210;2023-02-13T05:04:58;13.73;;;11.30;;
12635;SDS011;6383;50.830;7.210;2023-02-13T05:07:26;13.05;;;10.95;;
12635;SDS011;6383;50.830;7.210;2023-02-13T05:09:54;13.27;;;11.82;;
12635;SDS011;6383;50.830;7.210;2023-02-13T05:12:22;12.05;;;10.80;;
12635;SDS011;6383;50.830;7.210;2023-02-13T05:14:51;13.07;;;11.77;;
12635;SDS011;6383;50.830;7.210;2023-02-13T05:17:21;13.13;;;11.73;;
12635;SDS011;6383;50.830;7.210;2023-02-13T05:19:50;12.43;;;11.13;;
12635;SDS011;6383;50.830;7.210;2023-02-13T05:22:18;14.80;;;11.63;;
12635;SDS011;6383;50.830;7.210;2023-02-13T05:25:05;13.10;;;11.25;;
12635;SDS011;6383;50.830;7.210;2023-02-13T05:27:34;13.32;;;11.85;;
12635;SDS011;6383;50.830;7.210;2023-02-13T05:30:04;12.52;;;10.85;;
12635;SDS011;6383;50.830;7.210;2023-02-13T05:32:33;12.25;;;11.00;;
12635;SDS011;6383;50.830;7.210;2023-02-13T05:35:01;14.57;;;11.68;;
12635;SDS011;6383;50.830;7.210;2023-02-13T05:37:30;13.20;;;11.25;;
12635;SDS011;6383;50.830;7.210;2023-02-13T05:39:59;12.80;;;11.40;;
12635;SDS011;6383;50.830;7.210;2023-02-13T05:42:26;13.30;;;12.00;;
12635;SDS011;6383;50.830;7.210;2023-02-13T05:44:55;12.95;;;11.65;;
12635;SDS011;6383;50.830;7.210;2023-02-13T05:47:23;12.52;;;11.20;;
12635;SDS011;6383;50.830;7.210;2023-02-13T05:49:53;13.38;;;11.93;;
12635;SDS011;6383;50.830;7.210;2023-02-13T05:52:22;15.73;;;12.50;;
12635;SDS011;6383;50.830;7.210;2023-02-13T05:54:50;14.18;;;12.15;;
12635;SDS011;6383;50.830;7.210;2023-02-13T05:57:20;13.75;;;12.27;;
12635;SDS011;6383;50.830;7.210;2023-02-13T05:59:48;13.80;;;12.45;;
12635;SDS011;6383;50.830;7.210;2023-02-13T06:02:16;14.50;;;12.27;;
12635;SDS011;6383;50.830;7.210;2023-02-13T06:04:44;12.82;;;11.52;;
12635;SDS011;6383;50.830;7.210;2023-02-13T06:07:14;12.77;;;11.10;;
12635;SDS011;6383;50.830;7.210;2023-02-13T06:09:43;14.13;;;11.88;;
12635;SDS011;6383;50.830;7.210;2023-02-13T06:12:10;13.57;;;11.93;;
12635;SDS011;6383;50.830;7.210;2023-02-13T06:14:37;13.95;;;11.13;;
12635;SDS011;6383;50.830;7.210;2023-02-13T06:17:05;12.00;;;10.80;;
12635;SDS011;6383;50.830;7.210;2023-02-13T06:19:35;13.13;;;11.73;;
12635;SDS011;6383;50.830;7.210;2023-02-13T06:22:02;13.95;;;12.50;;
12635;SDS011;6383;50.830;7.210;2023-02-13T06:24:32;13.95;;;11.88;;
12635;SDS011;6383;50.830;7.210;2023-02-13T06:27:01;12.65;;;11.32;;
12635;SDS011;6383;50.830;7.210;2023-02-13T06:29:29;14.20;;;12.23;;
12635;SDS011;6383;50.830;7.210;2023-02-13T06:31:57;13.77;;;12.27;;
12635;SDS011;6383;50.830;7.210;2023-02-13T06:34:26;15.75;;;13.20;;
12635;SDS011;6383;50.830;7.210;2023-02-13T06:36:54;15.40;;;13.52;;
12635;SDS011;6383;50.830;7.210;2023-02-13T06:39:23;15.25;;;13.02;;
12635;SDS011;6383;50.830;7.210;2023-02-13T06:41:53;16.65;;;13.63;;
12635;SDS011;6383;50.830;7.210;2023-02-13T06:44:22;15.60;;;12.15;;
12635;SDS011;6383;50.830;7.210;2023-02-13T06:46:50;15.90;;;13.82;;
12635;SDS011;6383;50.830;7.210;2023-02-13T06:49:19;15.20;;;13.00;;
12635;SDS011;6383;50.830;7.210;2023-02-13T06:51:48;16.13;;;13.32;;
12635;SDS011;6383;50.830;7.210;2023-02-13T06:54:17;15.23;;;13.50;;
12635;SDS011;6383;50.830;7.210;2023-02-13T06:56:46;15.82;;;14.07;;
12635;SDS011;6383;50.830;7.210;2023-02-13T06:59:16;16.33;;;13.77;;
12635;SDS011;6383;50.830;7.210;2023-02-13T07:01:44;14.63;;;12.90;;
12635;SDS011;6383;50.830;7.210;2023-02-13T07:04:13;17.92;;;14.38;;
12635;SDS011;6383;50.830;7.210;2023-02-13T07:06:41;18.70;;;15.38;;
12635;SDS011;6383;50.830;7.210;2023-02-13T07:09:09;16.02;;;13.50;;
12635;SDS011;6383;50.830;7.210;2023-02-13T07:11:39;15.88;;;14.18;;
12635;SDS011;6383;50.830;7.210;2023-02-13T07:14:08;16.02;;;13.98;;
12635;SDS011;6383;50.830;7.210;2023-02-13T07:16:38;18.23;;;14.32;;
12635;SDS011;6383;50.830;7.210;2023-02-13T07:19:06;16.50;;;14.13;;
12635;SDS011;6383;50.830;7.210;2023-02-13T07:21:35;15.18;;;13.57;;
12635;SDS011;6383;50.830;7.210;2023-02-13T07:24:04;15.13;;;13.38;;
12635;SDS011;6383;50.830;7.210;2023-02-13T07:26:34;16.58;;;13.80;;
12635;SDS011;6383;50.830;7.210;2023-02-13T07:29:01;15.95;;;13.85;;
12635;SDS011;6383;50.830;7.210;2023-02-13T07:31:32;16.75;;;14.00;;
12635;SDS011;6383;50.830;7.210;2023-02-13T07:34:05;18.92;;;13.55;;
12635;SDS011;6383;50.830;7.210;2023-02-13T07:36:37;17.20;;;13.65;;
12635;SDS011;6383;50.830;7.210;2023-02-13T07:39:06;16.13;;;14.07;;
12635;SDS011;6383;50.830;7.210;2023-02-13T07:41:35;16.20;;;13.90;;
12635;SDS011;6383;50.830;7.210;2023-02-13T07:44:04;17.77;;;14.75;;
12635;SDS011;6383;50.830;7.210;2023-02-13T07:46:33;15.23;;;13.63;;
12635;SDS011;6383;50.830;7.210;2023-02-13T07:49:01;15.70;;;13.00;;
12635;SDS011;6383;50.830;7.210;2023-02-13T07:51:30;15.30;;;13.38;;
12635;SDS011;6383;50.830;7.210;2023-02-13T07:54:00;14.60;;;12.75;;
12635;SDS011;6383;50.830;7.210;2023-02-13T07:56:30;16.77;;;13.55;;
12635;SDS011;6383;50.830;7.210;2023-02-13T07:58:59;13.98;;;12.50;;
12635;SDS011;6383;50.830;7.210;2023-02-13T08:01:27;15.77;;;14.10;;
12635;SDS011;6383;50.830;7.210;2023-02-13T08:03:56;16.83;;;14.15;;
12635;SDS011;6383;50.830;7.210;2023-02-13T08:06:24;15.05;;;12.23;;
12635;SDS011;6383;50.830;7.210;2023-02-13T08:08:54;15.57;;;12.70;;
12635;SDS011;6383;50.830;7.210;2023-02-13T08:11:36;15.93;;;12.82;;
12635;SDS011;6383;50.830;7.210;2023-02-13T08:14:22;13.30;;;11.90;;
12635;SDS011;6383;50.830;7.210;2023-02-13T08:16:50;17.23;;;12.75;;
12635;SDS011;6383;50.830;7.210;2023-02-13T08:19:19;13.27;;;11.80;;
12635;SDS011;6383;50.830;7.210;2023-02-13T08:21:47;14.35;;;11.27;;
12635;SDS011;6383;50.830;7.210;2023-02-13T08:24:17;12.55;;;11.27;;
12635;SDS011;6383;50.830;7.210;2023-02-13T08:26:45;15.20;;;11.55;;
12635;SDS011;6383;50.830;7.210;2023-02-13T08:29:13;14.25;;;11.18;;
12635;SDS011;6383;50.830;7.210;2023-02-13T08:31:42;11.95;;;10.50;;
12635;SDS011;6383;50.830;7.210;2023-02-13T08:34:11;13.43;;;11.27;;
12635;SDS011;6383;50.830;7.210;2023-02-13T08:36:40;13.95;;;10.23;;
12635;SDS011;6383;50.830;7.210;2023-02-13T08:39:09;10.93;;;9.82;;
12635;SDS011;6383;50.830;7.210;2023-02-13T08:41:40;14.48;;;11.80;;
12635;SDS011;6383;50.830;7.210;2023-02-13T08:44:09;12.52;;;11.10;;
12635;SDS011;6383;50.830;7.210;2023-02-13T08:46:37;12.27;;;10.20;;
12635;SDS011;6383;50.830;7.210;2023-02-13T08:49:06;11.73;;;9.75;;
12635;SDS011;6383;50.830;7.210;2023-02-13T08:51:35;14.27;;;10.48;;
12635;SDS011;6383;50.830;7.210;2023-02-13T08:54:04;11.18;;;10.02;;
12635;SDS011;6383;50.830;7.210;2023-02-13T08:56:33;11.25;;;10.05;;
12635;SDS011;6383;50.830;7.210;2023-02-13T08:59:03;12.05;;;9.65;;
12635;SDS011;6383;50.830;7.210;2023-02-13T09:01:32;12.65;;;10.43;;
12635;SDS011;6383;50.830;7.210;2023-02-13T09:04:01;11.65;;;10.10;;
12635;SDS011;6383;50.830;7.210;2023-02-13T09:06:29;10.90;;;9.57;;
12635;SDS011;6383;50.830;7.210;2023-02-13T09:08:57;12.35;;;10.55;;
12635;SDS011;6383;50.830;7.210;2023-02-13T09:11:30;11.00;;;9.50;;
12635;SDS011;6383;50.830;7.210;2023-02-13T09:13:59;11.63;;;10.45;;
12635;SDS011;6383;50.830;7.210;2023-02-13T09:16:29;12.45;;;11.10;;
12635;SDS011;6383;50.830;7.210;2023-02-13T09:18:58;10.73;;;9.23;;
12635;SDS011;6383;50.830;7.210;2023-02-13T09:21:26;12.15;;;10.85;;
12635;SDS011;6383;50.830;7.210;2023-02-13T09:23:56;11.20;;;9.98;;
12635;SDS011;6383;50.830;7.210;2023-02-13T09:26:25;11.63;;;10.35;;
12635;SDS011;6383;50.830;7.210;2023-02-13T09:28:53;11.75;;;10.27;;
12635;SDS011;6383;50.830;7.210;2023-02-13T09:31:22;11.50;;;10.30;;
12635;SDS011;6383;50.830;7.210;2023-02-13T09:33:51;12.35;;;10.38;;
12635;SDS011;6383;50.830;7.210;2023-02-13T09:36:19;11.98;;;10.13;;
12635;SDS011;6383;50.830;7.210;2023-02-13T09:38:50;11.18;;;10.10;;
12635;SDS011;6383;50.830;7.210;2023-02-13T09:41:20;11.75;;;9.68;;
12635;SDS011;6383;50.830;7.210;2023-02-13T09:43:52;11.02;;;9.90;;
12635;SDS011;6383;50.830;7.210;2023-02-13T09:46:27;11.60;;;10.07;;
12635;SDS011;6383;50.830;7.210;2023-02-13T09:49:00;13.05;;;9.75;;
12635;SDS011;6383;50.830;7.210;2023-02-13T09:51:35;11.20;;;9.98;;
12635;SDS011;6383;50.830;7.210;2023-02-13T09:54:05;12.52;;;9.80;;
12635;SDS011;6383;50.830;7.210;2023-02-13T09:56:38;11.10;;;9.38;;
12635;SDS011;6383;50.830;7.210;2023-02-13T09:59:16;13.10;;;10.73;;
12635;SDS011;6383;50.830;7.210;2023-02-13T10:01:59;12.30;;;9.98;;
12635;SDS011;6383;50.830;7.210;2023-02-13T10:04:35;12.60;;;10.55;;
12635;SDS011;6383;50.830;7.210;2023-02-13T10:07:16;11.43;;;10.02;;
12635;SDS011;6383;50.830;7.210;2023-02-13T10:09:52;14.15;;;11.02;;
12635;SDS011;6383;50.830;7.210;2023-02-13T10:12:30;14.07;;;10.07;;
12635;SDS011;6383;50.830;7.210;2023-02-13T10:15:19;11.23;;;10.02;;
12635;SDS011;6383;50.830;7.210;2023-02-13T10:17:53;13.18;;;9.75;;
12635;SDS011;6383;50.830;7.210;2023-02-13T10:20:29;12.20;;;10.68;;
12635;SDS011;6383;50.830;7.210;2023-02-13T10:23:03;12.50;;;9.23;;
12635;SDS011;6383;50.830;7.210;2023-02-13T10:25:45;11.48;;;10.05;;
12635;SDS011;6383;50.830;7.210;2023-02-13T10:28:27;11.80;;;10.25;;
12635;SDS011;6383;50.830;7.210;2023-02-13T10:31:01;11.80;;;10.18;;
12635;SDS011;6383;50.830;7.210;2023-02-13T10:33:34;12.70;;;9.73;;
12635;SDS011;6383;50.830;7.210;2023-02-13T10:36:17;13.43;;;10.25;;
12635;SDS011;6383;50.830;7.210;2023-02-13T10:38:53;10.73;;;9.63;;
12635;SDS011;6383;50.830;7.210;2023-02-13T10:41:23;12.80;;;10.05;;
12635;SDS011;6383;50.830;7.210;2023-02-13T10:44:02;10.23;;;8.95;;
12635;SDS011;6383;50.830;7.210;2023-02-13T10:46:41;11.40;;;10.10;;
12635;SDS011;6383;50.830;7.210;2023-02-13T10:49:30;10.20;;;9.02;;
12635;SDS011;6383;50.830;7.210;2023-02-13T10:52:16;10.57;;;8.85;;
12635;SDS011;6383;50.830;7.210;2023-02-13T10:55:01;10.05;;;9.05;;
12635;SDS011;6383;50.830;7.210;2023-02-13T10:57:41;10.05;;;8.52;;
12635;SDS011;6383;50.830;7.210;2023-02-13T11:00:24;13.52;;;9.35;;
12635;SDS011;6383;50.830;7.210;2023-02-13T11:33:36;8.13;;;7.32;;
12635;SDS011;6383;50.830;7.210;2023-02-13T11:36:06;7.75;;;6.88;;
12635;SDS011;6383;50.830;7.210;2023-02-13T12:01:08;6.07;;;5.45;;
12635;SDS011;6383;50.830;7.210;2023-02-13T12:03:55;7.80;;;6.15;;
12635;SDS011;6383;50.830;7.210;2023-02-13T12:06:27;6.90;;;6.30;;
12635;SDS011;6383;50.830;7.210;2023-02-13T12:08:55;6.73;;;6.13;;
12635;SDS011;6383;50.830;7.210;2023-02-13T12:11:28;6.82;;;6.18;;
12635;SDS011;6383;50.830;7.210;2023-02-13T12:14:03;5.88;;;5.38;;
12635;SDS011;6383;50.830;7.210;2023-02-13T12:16:32;8.90;;;6.05;;
12635;SDS011;6383;50.830;7.210;2023-02-13T12:19:06;6.15;;;5.55;;
12635;SDS011;6383;50.830;7.210;2023-02-13T12:21:43;6.10;;;5.55;;
12635;SDS011;6383;50.830;7.210;2023-02-13T12:24:35;8.32;;;6.90;;
12635;SDS011;6383;50.830;7.210;2023-02-13T12:27:21;6.38;;;5.30;;
12635;SDS011;6383;50.830;7.210;2023-02-13T12:30:06;6.38;;;5.88;;
12635;SDS011;6383;50.830;7.210;2023-02-13T12:32:51;13.60;;;12.68;;
12635;SDS011;6383;50.830;7.210;2023-02-13T12:35:35;6.35;;;5.85;;
12635;SDS011;6383;50.830;7.210;2023-02-13T12:38:16;6.38;;;5.78;;
12635;SDS011;6383;50.830;7.210;2023-02-13T12:41:13;6.40;;;5.38;;
12635;SDS011;6383;50.830;7.210;2023-02-13T12:46:31;4.88;;;4.43;;
12635;SDS011;6383;50.830;7.210;2023-02-13T12:49:10;4.90;;;4.47;;
12635;SDS011;6383;50.830;7.210;2023-02-13T12:51:54;6.00;;;4.82;;
12635;SDS011;6383;50.830;7.210;2023-02-13T12:54:38;13.50;;;5.45;;
12635;SDS011;6383;50.830;7.210;2023-02-13T12:57:23;7.65;;;4.45;;
12635;SDS011;6383;50.830;7.210;2023-02-13T13:00:10;7.65;;;4.45;;
12635;SDS011;6383;50.830;7.210;2023-02-13T13:03:02;4.55;;;4.15;;
12635;SDS011;6383;50.830;7.210;2023-02-13T13:05:57;6.22;;;4.30;;
12635;SDS011;6383;50.830;7.210;2023-02-13T13:08:44;7.88;;;5.15;;
12635;SDS011;6383;50.830;7.210;2023-02-13T13:11:44;6.03;;;4.28;;
12635;SDS011;6383;50.830;7.210;2023-02-13T13:14:31;6.63;;;3.78;;
12635;SDS011;6383;50.830;7.210;2023-02-13T13:17:14;4.78;;;4.13;;
12635;SDS011;6383;50.830;7.210;2023-02-13T13:19:59;3.97;;;3.67;;
12635;SDS011;6383;50.830;7.210;2023-02-13T13:22:41;5.60;;;3.20;;
12635;SDS011;6383;50.830;7.210;2023-02-13T13:25:20;3.55;;;2.83;;
12635;SDS011;6383;50.830;7.210;2023-02-13T13:27:56;5.22;;;3.30;;
12635;SDS011;6383;50.830;7.210;2023-02-13T13:30:32;5.97;;;3.25;;
12635;SDS011;6383;50.830;7.210;2023-02-13T13:33:02;7.07;;;3.33;;
12635;SDS011;6383;50.830;7.210;2023-02-13T13:35:39;3.20;;;2.90;;
12635;SDS011;6383;50.830;7.210;2023-02-13T13:38:13;4.43;;;3.33;;
12635;SDS011;6383;50.830;7.210;2023-02-13T13:40:49;3.53;;;3.22;;
12635;SDS011;6383;50.830;7.210;2023-02-13T13:43:23;5.25;;;3.72;;
12635;SDS011;6383;50.830;7.210;2023-02-13T13:46:01;3.53;;;2.65;;
12635;SDS011;6383;50.830;7.210;2023-02-13T13:48:46;2.58;;;2.47;;
12635;SDS011;6383;50.830;7.210;2023-02-13T13:51:25;3.25;;;2.67;;
12635;SDS011;6383;50.830;7.210;2023-02-13T14:02:36;2.08;;;1.88;;
12635;SDS011;6383;50.830;7.210;2023-02-13T14:08:03;2.25;;;2.13;;
12635;SDS011;6383;50.830;7.210;2023-02-13T14:11:24;1.65;;;1.55;;
12635;SDS011;6383;50.830;7.210;2023-02-13T14:13:59;3.03;;;2.28;;
12635;SDS011;6383;50.830;7.210;2023-02-13T14:16:36;2.10;;;1.88;;
12635;SDS011;6383;50.830;7.210;2023-02-13T14:19:21;2.15;;;1.95;;
12635;SDS011;6383;50.830;7.210;2023-02-13T14:21:52;2.05;;;1.85;;
12635;SDS011;6383;50.830;7.210;2023-02-13T14:24:24;1.67;;;1.58;;
12635;SDS011;6383;50.830;7.210;2023-02-13T14:26:53;1.92;;;1.80;;
12635;SDS011;6383;50.830;7.210;2023-02-13T14:29:28;2.17;;;1.70;;
12635;SDS011;6383;50.830;7.210;2023-02-13T14:34:52;1.63;;;1.52;;
12635;SDS011;6383;50.830;7.210;2023-02-13T14:37:27;5.03;;;1.90;;
12635;SDS011;6383;50.830;7.210;2023-02-13T14:40:25;3.78;;;2.50;;
12635;SDS011;6383;50.830;7.210;2023-02-13T14:43:05;3.67;;;1.98;;
12635;SDS011;6383;50.830;7.210;2023-02-13T14:45:47;3.05;;;1.80;;
12635;SDS011;6383;50.830;7.210;2023-02-13T14:48:20;1.98;;;1.73;;
12635;SDS011;6383;50.830;7.210;2023-02-13T14:50:53;2.38;;;1.60;;
12635;SDS011;6383;50.830;7.210;2023-02-13T14:53:27;2.40;;;2.25;;
12635;SDS011;6383;50.830;7.210;2023-02-13T14:56:01;3.67;;;1.88;;
12635;SDS011;6383;50.830;7.210;2023-02-13T14:58:34;1.80;;;1.70;;
12635;SDS011;6383;50.830;7.210;2023-02-13T15:01:15;4.50;;;1.80;;
12635;SDS011;6383;50.830;7.210;2023-02-13T15:03:53;2.40;;;2.20;;
12635;SDS011;6383;50.830;7.210;2023-02-13T15:06:27;3.53;;;2.33;;
12635;SDS011;6383;50.830;7.210;2023-02-13T15:09:02;4.10;;;2.58;;
12635;SDS011;6383;50.830;7.210;2023-02-13T15:11:36;2.75;;;2.55;;
12635;SDS011;6383;50.830;7.210;2023-02-13T15:14:16;2.30;;;2.10;;
12635;SDS011;6383;50.830;7.210;2023-02-13T15:16:47;2.50;;;2.30;;
12635;SDS011;6383;50.830;7.210;2023-02-13T15:19:20;2.90;;;2.50;;
12635;SDS011;6383;50.830;7.210;2023-02-13T15:21:52;5.07;;;2.60;;
12635;SDS011;6383;50.830;7.210;2023-02-13T15:24:24;2.90;;;2.53;;
12635;SDS011;6383;50.830;7.210;2023-02-13T15:26:59;2.58;;;2.38;;
12635;SDS011;6383;50.830;7.210;2023-02-13T15:29:29;5.88;;;3.00;;
12635;SDS011;6383;50.830;7.210;2023-02-13T15:31:59;2.65;;;2.28;;
12635;SDS011;6383;50.830;7.210;2023-02-13T15:34:28;7.78;;;3.40;;
12635;SDS011;6383;50.830;7.210;2023-02-13T15:36:59;3.55;;;2.67;;
12635;SDS011;6383;50.830;7.210;2023-02-13T15:39:30;5.80;;;2.55;;
12635;SDS011;6383;50.830;7.210;2023-02-13T15:42:01;2.85;;;2.28;;
12635;SDS011;6383;50.830;7.210;2023-02-13T15:44:30;4.70;;;2.40;;
12635;SDS011;6383;50.830;7.210;2023-02-13T15:47:01;2.75;;;2.47;;
12635;SDS011;6383;50.830;7.210;2023-02-13T15:49:33;2.25;;;2.08;;
12635;SDS011;6383;50.830;7.210;2023-02-13T15:52:06;4.68;;;2.30;;
12635;SDS011;6383;50.830;7.210;2023-02-13T15:54:46;2.17;;;1.98;;
12635;SDS011;6383;50.830;7.210;2023-02-13T15:57:18;1.70;;;1.60;;
12635;SDS011;6383;50.830;7.210;2023-02-13T15:59:49;2.80;;;1.67;;
12635;SDS011;6383;50.830;7.210;2023-02-13T16:02:21;1.98;;;1.55;;
12635;SDS011;6383;50.830;7.210;2023-02-13T16:04:55;3.33;;;1.90;;
12635;SDS011;6383;50.830;7.210;2023-02-13T16:07:26;1.80;;;1.38;;
12635;SDS011;6383;50.830;7.210;2023-02-13T16:12:46;2.90;;;1.85;;
12635;SDS011;6383;50.830;7.210;2023-02-13T16:15:17;3.92;;;1.58;;
12635;SDS011;6383;50.830;7.210;2023-02-13T16:17:48;3.03;;;1.60;;
12635;SDS011;6383;50.830;7.210;2023-02-13T16:20:18;1.73;;;1.60;;
12635;SDS011;6383;50.830;7.210;2023-02-13T16:22:49;2.90;;;1.40;;
12635;SDS011;6383;50.830;7.210;2023-02-13T16:25:22;7.57;;;1.58;;
12635;SDS011;6383;50.830;7.210;2023-02-13T16:27:54;2.40;;;1.50;;
12635;SDS011;6383;50.830;7.210;2023-02-13T16:30:28;2.95;;;1.60;;
12635;SDS011;6383;50.830;7.210;2023-02-13T16:33:18;3.30;;;1.65;;
12635;SDS011;6383;50.830;7.210;2023-02-13T16:35:50;3.90;;;1.60;;
12635;SDS011;6383;50.830;7.210;2023-02-13T16:38:23;4.00;;;1.70;;
12635;SDS011;6383;50.830;7.210;2023-02-13T16:40:58;2.80;;;1.60;;
12635;SDS011;6383;50.830;7.210;2023-02-13T16:43:42;1.90;;;1.77;;